sensor_id;sensor_type;location;lat;lon;timestamp;temperature;humidity
2463;DHT22;1243;54.298;10.172;2023-02-05T00:01:34;0.10;88.00
2463;DHT22;1243;54.298;10.172;2023-02-05T00:04:00;0.10;87.80
2463;DHT22;1243;54.298;10.172;2023-02-05T00:06:26;0.10;87.80
2463;DHT22;1243;54.298;10.172;2023-02-05T00:08:51;0.00;87.80
2463;DHT22;1243;54.298;10.172;2023-02-05T00:11:17;0.00;87.70
2463;DHT22;1243;54.298;10.172;2023-02-05T00:13:43;0.00;84.40
2463;DHT22;1243;54.298;10.172;2023-02-05T00:16:20;-0.10;79.80
2463;DHT22;1243;54.298;10.172;2023-02-05T00:18:46;-0.10;77.30
2463;DHT22;1243;54.298;10.172;2023-02-05T00:21:13;-0.10;78.50
2463;DHT22;1243;54.298;10.172;2023-02-05T00:23:39;-0.10;83.60
2463;DHT22;1243;54.298;10.172;2023-02-05T00:26:06;-0.20;82.00
2463;DHT22;1243;54.298;10.172;2023-02-05T00:28:33;-0.20;85.60
2463;DHT22;1243;54.298;10.172;2023-02-05T00:30:59;-0.20;87.60
2463;DHT22;1243;54.298;10.172;2023-02-05T00:33:25;-0.20;87.60
2463;DHT22;1243;54.298;10.172;2023-02-05T00:35:51;-0.20;87.70
2463;DHT22;1243;54.298;10.172;2023-02-05T00:38:17;-0.20;87.70
2463;DHT22;1243;54.298;10.172;2023-02-05T00:40:42;-0.20;87.60
2463;DHT22;1243;54.298;10.172;2023-02-05T00:43:08;-0.20;87.60
2463;DHT22;1243;54.298;10.172;2023-02-05T00:45:34;-0.20;87.60
2463;DHT22;1243;54.298;10.172;2023-02-05T00:48:01;-0.30;87.60
2463;DHT22;1243;54.298;10.172;2023-02-05T00:50:27;-0.30;87.60
2463;DHT22;1243;54.298;10.172;2023-02-05T00:52:54;-0.20;87.70
2463;DHT22;1243;54.298;10.172;2023-02-05T00:55:19;-0.20;87.60
2463;DHT22;1243;54.298;10.172;2023-02-05T00:57:45;-0.30;87.60
2463;DHT22;1243;54.298;10.172;2023-02-05T01:00:12;-0.30;87.50
2463;DHT22;1243;54.298;10.172;2023-02-05T01:02:38;-0.30;87.60
2463;DHT22;1243;54.298;10.172;2023-02-05T01:05:03;-0.30;87.50
2463;DHT22;1243;54.298;10.172;2023-02-05T01:07:29;-0.20;87.60
2463;DHT22;1243;54.298;10.172;2023-02-05T01:09:55;-0.30;87.60
2463;DHT22;1243;54.298;10.172;2023-02-05T01:12:21;-0.30;87.50
2463;DHT22;1243;54.298;10.172;2023-02-05T01:14:47;-0.30;87.60
2463;DHT22;1243;54.298;10.172;2023-02-05T01:17:12;-0.30;87.60
2463;DHT22;1243;54.298;10.172;2023-02-05T01:19:38;-0.30;87.60
2463;DHT22;1243;54.298;10.172;2023-02-05T01:22:04;-0.30;87.60
2463;DHT22;1243;54.298;10.172;2023-02-05T01:24:30;-0.30;87.70
2463;DHT22;1243;54.298;10.172;2023-02-05T01:26:56;-0.30;87.60
2463;DHT22;1243;54.298;10.172;2023-02-05T01:29:24;-0.40;90.00
2463;DHT22;1243;54.298;10.172;2023-02-05T01:31:50;-0.40;87.50
2463;DHT22;1243;54.298;10.172;2023-02-05T01:34:16;-0.40;89.00
2463;DHT22;1243;54.298;10.172;2023-02-05T01:36:42;-0.40;80.00
2463;DHT22;1243;54.298;10.172;2023-02-05T01:39:08;-0.40;77.90
2463;DHT22;1243;54.298;10.172;2023-02-05T01:41:33;-0.40;80.40
2463;DHT22;1243;54.298;10.172;2023-02-05T01:44:19;-0.40;87.30
2463;DHT22;1243;54.298;10.172;2023-02-05T01:46:50;-0.40;80.70
2463;DHT22;1243;54.298;10.172;2023-02-05T01:49:51;-0.40;78.00
2463;DHT22;1243;54.298;10.172;2023-02-05T01:52:17;-0.50;74.40
2463;DHT22;1243;54.298;10.172;2023-02-05T01:54:45;-0.40;74.70
2463;DHT22;1243;54.298;10.172;2023-02-05T01:57:19;-0.50;72.10
2463;DHT22;1243;54.298;10.172;2023-02-05T01:59:48;-0.50;71.50
2463;DHT22;1243;54.298;10.172;2023-02-05T02:02:14;-0.40;72.40
2463;DHT22;1243;54.298;10.172;2023-02-05T02:04:54;-0.40;76.20
2463;DHT22;1243;54.298;10.172;2023-02-05T02:07:23;-0.40;72.90
2463;DHT22;1243;54.298;10.172;2023-02-05T02:09:51;-0.30;74.80
2463;DHT22;1243;54.298;10.172;2023-02-05T02:12:23;-0.30;75.90
2463;DHT22;1243;54.298;10.172;2023-02-05T02:14:55;-0.20;72.80
2463;DHT22;1243;54.298;10.172;2023-02-05T02:17:21;-0.20;71.50
2463;DHT22;1243;54.298;10.172;2023-02-05T02:20:11;-0.20;67.50
2463;DHT22;1243;54.298;10.172;2023-02-05T02:28:27;-0.10;70.90
2463;DHT22;1243;54.298;10.172;2023-02-05T02:31:02;0.00;68.30
2463;DHT22;1243;54.298;10.172;2023-02-05T02:33:33;-0.10;62.30
2463;DHT22;1243;54.298;10.172;2023-02-05T02:36:09;-0.10;60.00
2463;DHT22;1243;54.298;10.172;2023-02-05T02:39:12;-0.10;57.60
2463;DHT22;1243;54.298;10.172;2023-02-05T02:42:24;-0.10;57.50
2463;DHT22;1243;54.298;10.172;2023-02-05T02:44:57;-0.20;50.70
2463;DHT22;1243;54.298;10.172;2023-02-05T02:47:46;-0.10;52.70
2463;DHT22;1243;54.298;10.172;2023-02-05T02:50:17;-0.10;50.10
2463;DHT22;1243;54.298;10.172;2023-02-05T02:52:45;-0.10;50.30
2463;DHT22;1243;54.298;10.172;2023-02-05T02:55:13;-0.10;54.20
2463;DHT22;1243;54.298;10.172;2023-02-05T02:57:43;-0.10;55.40
2463;DHT22;1243;54.298;10.172;2023-02-05T03:00:22;-0.10;50.50
2463;DHT22;1243;54.298;10.172;2023-02-05T03:02:52;0.00;55.10
2463;DHT22;1243;54.298;10.172;2023-02-05T03:05:21;0.10;59.00
2463;DHT22;1243;54.298;10.172;2023-02-05T03:08:12;0.10;55.40
2463;DHT22;1243;54.298;10.172;2023-02-05T03:10:52;0.00;49.30
2463;DHT22;1243;54.298;10.172;2023-02-05T03:13:20;0.00;43.70
2463;DHT22;1243;54.298;10.172;2023-02-05T03:15:45;0.00;42.90
2463;DHT22;1243;54.298;10.172;2023-02-05T03:18:13;0.00;45.90
2463;DHT22;1243;54.298;10.172;2023-02-05T03:20:57;0.00;46.40
2463;DHT22;1243;54.298;10.172;2023-02-05T03:23:26;0.10;55.50
2463;DHT22;1243;54.298;10.172;2023-02-05T03:25:52;0.10;52.10
2463;DHT22;1243;54.298;10.172;2023-02-05T03:28:18;0.10;43.10
2463;DHT22;1243;54.298;10.172;2023-02-05T03:30:54;0.10;43.30
2463;DHT22;1243;54.298;10.172;2023-02-05T03:33:46;0.10;41.20
2463;DHT22;1243;54.298;10.172;2023-02-05T03:37:10;0.10;38.10
2463;DHT22;1243;54.298;10.172;2023-02-05T03:39:12;0.10;31.40
2463;DHT22;1243;54.298;10.172;2023-02-05T03:45:03;0.10;38.20
2463;DHT22;1243;54.298;10.172;2023-02-05T03:51:01;0.20;31.70
2463;DHT22;1243;54.298;10.172;2023-02-05T03:56:16;0.20;29.80
2463;DHT22;1243;54.298;10.172;2023-02-05T03:58:46;0.20;24.30
2463;DHT22;1243;54.298;10.172;2023-02-05T04:01:13;0.10;23.10
2463;DHT22;1243;54.298;10.172;2023-02-05T04:03:40;0.20;24.20
2463;DHT22;1243;54.298;10.172;2023-02-05T04:06:06;0.20;24.30
2463;DHT22;1243;54.298;10.172;2023-02-05T04:08:32;0.20;21.30
2463;DHT22;1243;54.298;10.172;2023-02-05T04:10:57;0.20;21.10
2463;DHT22;1243;54.298;10.172;2023-02-05T04:13:23;0.10;19.80
2463;DHT22;1243;54.298;10.172;2023-02-05T04:15:49;0.10;16.70
2463;DHT22;1243;54.298;10.172;2023-02-05T04:18:16;0.10;20.40
2463;DHT22;1243;54.298;10.172;2023-02-05T04:20:42;0.10;19.60
2463;DHT22;1243;54.298;10.172;2023-02-05T04:23:08;0.10;22.90
2463;DHT22;1243;54.298;10.172;2023-02-05T04:25:36;0.00;20.10
2463;DHT22;1243;54.298;10.172;2023-02-05T04:28:02;0.00;17.30
2463;DHT22;1243;54.298;10.172;2023-02-05T04:30:27;0.00;18.20
2463;DHT22;1243;54.298;10.172;2023-02-05T04:32:53;0.10;19.10
2463;DHT22;1243;54.298;10.172;2023-02-05T04:35:19;0.10;18.70
2463;DHT22;1243;54.298;10.172;2023-02-05T04:37:44;0.10;19.40
2463;DHT22;1243;54.298;10.172;2023-02-05T04:40:10;0.10;18.60
2463;DHT22;1243;54.298;10.172;2023-02-05T04:42:36;0.20;18.00
2463;DHT22;1243;54.298;10.172;2023-02-05T04:45:02;0.20;17.80
2463;DHT22;1243;54.298;10.172;2023-02-05T04:47:30;0.20;15.90
2463;DHT22;1243;54.298;10.172;2023-02-05T04:49:56;0.10;13.30
2463;DHT22;1243;54.298;10.172;2023-02-05T04:52:22;0.20;14.00
2463;DHT22;1243;54.298;10.172;2023-02-05T04:54:48;0.10;12.00
2463;DHT22;1243;54.298;10.172;2023-02-05T04:57:14;0.10;11.20
2463;DHT22;1243;54.298;10.172;2023-02-05T04:59:40;0.10;10.50
2463;DHT22;1243;54.298;10.172;2023-02-05T05:02:06;0.10;11.40
2463;DHT22;1243;54.298;10.172;2023-02-05T05:04:32;0.20;14.20
2463;DHT22;1243;54.298;10.172;2023-02-05T05:06:58;0.10;10.10
2463;DHT22;1243;54.298;10.172;2023-02-05T05:09:23;0.10;14.30
2463;DHT22;1243;54.298;10.172;2023-02-05T05:11:53;0.20;14.10
2463;DHT22;1243;54.298;10.172;2023-02-05T05:14:21;0.20;13.30
2463;DHT22;1243;54.298;10.172;2023-02-05T05:16:48;0.20;10.60
2463;DHT22;1243;54.298;10.172;2023-02-05T05:19:14;0.20;9.00
2463;DHT22;1243;54.298;10.172;2023-02-05T05:21:40;0.20;9.30
2463;DHT22;1243;54.298;10.172;2023-02-05T05:24:06;0.20;10.40
2463;DHT22;1243;54.298;10.172;2023-02-05T05:26:31;0.30;13.00
2463;DHT22;1243;54.298;10.172;2023-02-05T05:28:57;0.30;14.10
2463;DHT22;1243;54.298;10.172;2023-02-05T05:31:23;0.40;15.20
2463;DHT22;1243;54.298;10.172;2023-02-05T05:33:49;0.40;8.60
2463;DHT22;1243;54.298;10.172;2023-02-05T05:36:16;0.40;7.00
2463;DHT22;1243;54.298;10.172;2023-02-05T05:38:42;0.40;4.70
2463;DHT22;1243;54.298;10.172;2023-02-05T05:41:16;0.30;5.40
2463;DHT22;1243;54.298;10.172;2023-02-05T05:44:02;0.40;7.10
2463;DHT22;1243;54.298;10.172;2023-02-05T05:46:27;0.40;8.00
2463;DHT22;1243;54.298;10.172;2023-02-05T05:48:55;0.40;8.00
2463;DHT22;1243;54.298;10.172;2023-02-05T05:51:22;0.40;8.70
2463;DHT22;1243;54.298;10.172;2023-02-05T05:53:48;0.50;8.40
2463;DHT22;1243;54.298;10.172;2023-02-05T05:56:15;0.50;6.00
2463;DHT22;1243;54.298;10.172;2023-02-05T05:58:41;0.50;4.80
2463;DHT22;1243;54.298;10.172;2023-02-05T06:01:08;0.40;1.20
2463;DHT22;1243;54.298;10.172;2023-02-05T06:03:34;0.40;4.70
2463;DHT22;1243;54.298;10.172;2023-02-05T06:06:02;0.40;2.80
2463;DHT22;1243;54.298;10.172;2023-02-05T06:08:28;0.40;4.70
2463;DHT22;1243;54.298;10.172;2023-02-05T06:10:54;0.40;4.90
2463;DHT22;1243;54.298;10.172;2023-02-05T06:13:20;0.50;7.80
2463;DHT22;1243;54.298;10.172;2023-02-05T06:15:46;0.50;7.40
2463;DHT22;1243;54.298;10.172;2023-02-05T06:18:14;0.50;8.30
2463;DHT22;1243;54.298;10.172;2023-02-05T06:20:39;0.50;9.50
2463;DHT22;1243;54.298;10.172;2023-02-05T06:23:05;0.50;7.70
2463;DHT22;1243;54.298;10.172;2023-02-05T06:25:31;0.50;5.90
2463;DHT22;1243;54.298;10.172;2023-02-05T06:27:56;0.50;6.50
2463;DHT22;1243;54.298;10.172;2023-02-05T06:30:22;0.60;6.60
2463;DHT22;1243;54.298;10.172;2023-02-05T06:32:48;0.50;4.70
2463;DHT22;1243;54.298;10.172;2023-02-05T06:35:14;0.60;4.30
2463;DHT22;1243;54.298;10.172;2023-02-05T06:37:40;0.60;4.60
2463;DHT22;1243;54.298;10.172;2023-02-05T06:40:06;0.60;3.00
2463;DHT22;1243;54.298;10.172;2023-02-05T06:42:31;0.50;1.90
2463;DHT22;1243;54.298;10.172;2023-02-05T06:44:57;0.60;4.90
2463;DHT22;1243;54.298;10.172;2023-02-05T06:47:23;0.60;3.20
2463;DHT22;1243;54.298;10.172;2023-02-05T06:49:48;0.60;2.60
2463;DHT22;1243;54.298;10.172;2023-02-05T06:52:14;0.60;3.40
2463;DHT22;1243;54.298;10.172;2023-02-05T06:54:40;0.50;1.00
2463;DHT22;1243;54.298;10.172;2023-02-05T06:57:08;0.50;1.00
2463;DHT22;1243;54.298;10.172;2023-02-05T06:59:34;0.50;1.00
2463;DHT22;1243;54.298;10.172;2023-02-05T07:01:59;0.50;4.70
2463;DHT22;1243;54.298;10.172;2023-02-05T07:04:25;0.50;4.70
2463;DHT22;1243;54.298;10.172;2023-02-05T07:06:53;0.60;7.10
2463;DHT22;1243;54.298;10.172;2023-02-05T07:09:19;0.60;6.60
2463;DHT22;1243;54.298;10.172;2023-02-05T07:11:45;0.70;8.20
2463;DHT22;1243;54.298;10.172;2023-02-05T07:14:10;0.70;5.00
2463;DHT22;1243;54.298;10.172;2023-02-05T07:16:36;0.60;3.50
2463;DHT22;1243;54.298;10.172;2023-02-05T07:19:02;0.60;4.80
2463;DHT22;1243;54.298;10.172;2023-02-05T07:21:28;0.60;5.30
2463;DHT22;1243;54.298;10.172;2023-02-05T07:23:54;0.70;6.50
2463;DHT22;1243;54.298;10.172;2023-02-05T07:26:19;0.70;5.70
2463;DHT22;1243;54.298;10.172;2023-02-05T07:28:45;0.70;4.80
2463;DHT22;1243;54.298;10.172;2023-02-05T07:31:14;0.70;4.80
2463;DHT22;1243;54.298;10.172;2023-02-05T07:33:41;0.70;5.10
2463;DHT22;1243;54.298;10.172;2023-02-05T07:36:08;0.70;4.80
2463;DHT22;1243;54.298;10.172;2023-02-05T07:38:36;0.80;3.40
2463;DHT22;1243;54.298;10.172;2023-02-05T07:41:03;0.80;2.60
2463;DHT22;1243;54.298;10.172;2023-02-05T07:43:29;0.80;2.10
2463;DHT22;1243;54.298;10.172;2023-02-05T07:46:00;0.70;1.00
2463;DHT22;1243;54.298;10.172;2023-02-05T07:48:26;0.80;1.30
2463;DHT22;1243;54.298;10.172;2023-02-05T07:50:52;0.80;5.00
2463;DHT22;1243;54.298;10.172;2023-02-05T07:53:19;0.90;6.00
2463;DHT22;1243;54.298;10.172;2023-02-05T07:55:45;0.90;7.30
2463;DHT22;1243;54.298;10.172;2023-02-05T07:58:11;0.90;5.00
2463;DHT22;1243;54.298;10.172;2023-02-05T08:00:37;1.00;6.60
2463;DHT22;1243;54.298;10.172;2023-02-05T08:03:03;1.00;5.40
2463;DHT22;1243;54.298;10.172;2023-02-05T08:05:29;1.00;7.80
2463;DHT22;1243;54.298;10.172;2023-02-05T08:07:54;1.10;8.00
2463;DHT22;1243;54.298;10.172;2023-02-05T08:10:20;1.10;4.60
2463;DHT22;1243;54.298;10.172;2023-02-05T08:12:46;1.10;1.70
2463;DHT22;1243;54.298;10.172;2023-02-05T08:15:12;1.10;1.00
2463;DHT22;1243;54.298;10.172;2023-02-05T08:17:38;1.10;1.00
2463;DHT22;1243;54.298;10.172;2023-02-05T08:20:05;1.10;2.00
2463;DHT22;1243;54.298;10.172;2023-02-05T08:22:35;1.20;3.90
2463;DHT22;1243;54.298;10.172;2023-02-05T08:25:03;1.20;1.00
2463;DHT22;1243;54.298;10.172;2023-02-05T08:27:31;1.20;1.00
2463;DHT22;1243;54.298;10.172;2023-02-05T08:29:57;1.20;1.00
2463;DHT22;1243;54.298;10.172;2023-02-05T08:32:23;1.30;3.40
2463;DHT22;1243;54.298;10.172;2023-02-05T08:34:49;1.40;7.60
2463;DHT22;1243;54.298;10.172;2023-02-05T08:37:14;1.40;5.50
2463;DHT22;1243;54.298;10.172;2023-02-05T08:39:40;1.40;3.70
2463;DHT22;1243;54.298;10.172;2023-02-05T08:42:06;1.50;1.00
2463;DHT22;1243;54.298;10.172;2023-02-05T08:44:32;1.40;1.00
2463;DHT22;1243;54.298;10.172;2023-02-05T08:46:58;1.40;1.00
2463;DHT22;1243;54.298;10.172;2023-02-05T08:49:24;1.40;1.00
2463;DHT22;1243;54.298;10.172;2023-02-05T08:51:50;1.30;1.00
2463;DHT22;1243;54.298;10.172;2023-02-05T08:54:16;1.40;1.00
2463;DHT22;1243;54.298;10.172;2023-02-05T08:56:43;1.40;1.00
2463;DHT22;1243;54.298;10.172;2023-02-05T08:59:10;1.40;1.00
2463;DHT22;1243;54.298;10.172;2023-02-05T09:01:36;1.40;1.00
2463;DHT22;1243;54.298;10.172;2023-02-05T09:04:05;1.40;1.00
2463;DHT22;1243;54.298;10.172;2023-02-05T09:06:31;1.50;1.00
2463;DHT22;1243;54.298;10.172;2023-02-05T09:08:57;1.50;1.20
2463;DHT22;1243;54.298;10.172;2023-02-05T09:11:23;1.60;1.00
2463;DHT22;1243;54.298;10.172;2023-02-05T09:13:51;1.70;1.00
2463;DHT22;1243;54.298;10.172;2023-02-05T09:16:17;1.70;1.00
2463;DHT22;1243;54.298;10.172;2023-02-05T09:18:43;1.70;1.00
2463;DHT22;1243;54.298;10.172;2023-02-05T09:21:09;1.70;1.00
2463;DHT22;1243;54.298;10.172;2023-02-05T09:23:36;1.70;1.00
2463;DHT22;1243;54.298;10.172;2023-02-05T09:26:02;1.70;1.00
2463;DHT22;1243;54.298;10.172;2023-02-05T09:28:28;1.70;1.00
2463;DHT22;1243;54.298;10.172;2023-02-05T09:30:54;1.70;1.00
2463;DHT22;1243;54.298;10.172;2023-02-05T09:33:19;1.70;1.00
2463;DHT22;1243;54.298;10.172;2023-02-05T09:35:45;1.70;1.00
2463;DHT22;1243;54.298;10.172;2023-02-05T09:38:14;1.80;1.00
2463;DHT22;1243;54.298;10.172;2023-02-05T09:40:57;1.80;1.00
2463;DHT22;1243;54.298;10.172;2023-02-05T09:43:44;1.70;1.00
2463;DHT22;1243;54.298;10.172;2023-02-05T09:48:55;1.70;1.00
2463;DHT22;1243;54.298;10.172;2023-02-05T09:51:33;1.80;1.00
2463;DHT22;1243;54.298;10.172;2023-02-05T09:54:05;1.80;1.00
2463;DHT22;1243;54.298;10.172;2023-02-05T09:56:35;1.80;1.00
2463;DHT22;1243;54.298;10.172;2023-02-05T09:59:03;1.70;1.00
2463;DHT22;1243;54.298;10.172;2023-02-05T10:01:59;1.80;1.00
2463;DHT22;1243;54.298;10.172;2023-02-05T10:04:26;1.80;1.00
2463;DHT22;1243;54.298;10.172;2023-02-05T10:09:41;1.90;1.00
2463;DHT22;1243;54.298;10.172;2023-02-05T10:12:42;2.00;1.00
2463;DHT22;1243;54.298;10.172;2023-02-05T10:26:54;2.00;1.00
2463;DHT22;1243;54.298;10.172;2023-02-05T10:32:20;1.90;1.00
2463;DHT22;1243;54.298;10.172;2023-02-05T10:34:59;2.00;1.00
2463;DHT22;1243;54.298;10.172;2023-02-05T10:40:11;2.00;1.00
2463;DHT22;1243;54.298;10.172;2023-02-05T10:42:43;2.10;1.00
2463;DHT22;1243;54.298;10.172;2023-02-05T10:45:22;2.10;1.00
2463;DHT22;1243;54.298;10.172;2023-02-05T10:47:55;2.20;1.00
2463;DHT22;1243;54.298;10.172;2023-02-05T10:50:59;2.40;1.00
2463;DHT22;1243;54.298;10.172;2023-02-05T10:53:27;2.40;1.00
2463;DHT22;1243;54.298;10.172;2023-02-05T10:55:53;2.40;1.00
2463;DHT22;1243;54.298;10.172;2023-02-05T10:58:38;2.40;1.00
2463;DHT22;1243;54.298;10.172;2023-02-05T11:01:15;2.50;1.00
2463;DHT22;1243;54.298;10.172;2023-02-05T11:06:46;2.50;1.00
2463;DHT22;1243;54.298;10.172;2023-02-05T11:11:54;2.40;1.00
2463;DHT22;1243;54.298;10.172;2023-02-05T11:14:26;2.40;1.00
2463;DHT22;1243;54.298;10.172;2023-02-05T11:16:55;2.40;1.00
2463;DHT22;1243;54.298;10.172;2023-02-05T11:19:30;2.50;1.00
2463;DHT22;1243;54.298;10.172;2023-02-05T11:22:01;2.50;1.00
2463;DHT22;1243;54.298;10.172;2023-02-05T11:27:25;2.40;1.00
2463;DHT22;1243;54.298;10.172;2023-02-05T11:29:56;2.40;1.00
2463;DHT22;1243;54.298;10.172;2023-02-05T11:32:34;2.50;1.00
2463;DHT22;1243;54.298;10.172;2023-02-05T11:35:26;2.60;3.80
2463;DHT22;1243;54.298;10.172;2023-02-05T11:38:14;2.60;5.70
2463;DHT22;1243;54.298;10.172;2023-02-05T11:40:52;2.60;5.90
2463;DHT22;1243;54.298;10.172;2023-02-05T11:43:32;2.50;1.10
2463;DHT22;1243;54.298;10.172;2023-02-05T11:46:00;2.50;6.70
2463;DHT22;1243;54.298;10.172;2023-02-05T11:48:57;2.60;6.40
2463;DHT22;1243;54.298;10.172;2023-02-05T11:51:44;2.60;9.70
2463;DHT22;1243;54.298;10.172;2023-02-05T11:54:30;2.70;14.60
2463;DHT22;1243;54.298;10.172;2023-02-05T11:57:02;2.80;12.60
2463;DHT22;1243;54.298;10.172;2023-02-05T11:59:30;2.70;8.70
2463;DHT22;1243;54.298;10.172;2023-02-05T12:07:24;2.50;11.10
2463;DHT22;1243;54.298;10.172;2023-02-05T12:09:51;2.50;15.60
2463;DHT22;1243;54.298;10.172;2023-02-05T12:12:34;2.40;16.10
2463;DHT22;1243;54.298;10.172;2023-02-05T12:17:37;2.40;27.20
2463;DHT22;1243;54.298;10.172;2023-02-05T12:26:29;2.80;61.90
2463;DHT22;1243;54.298;10.172;2023-02-05T12:31:59;2.80;51.40
2463;DHT22;1243;54.298;10.172;2023-02-05T12:40:08;2.80;55.00
2463;DHT22;1243;54.298;10.172;2023-02-05T12:51:11;3.10;66.90
2463;DHT22;1243;54.298;10.172;2023-02-05T12:56:53;2.80;53.90
2463;DHT22;1243;54.298;10.172;2023-02-05T13:04:36;2.70;75.70
2463;DHT22;1243;54.298;10.172;2023-02-05T13:07:32;2.80;80.30
2463;DHT22;1243;54.298;10.172;2023-02-05T13:10:05;2.80;83.10
2463;DHT22;1243;54.298;10.172;2023-02-05T13:12:36;2.80;84.20
2463;DHT22;1243;54.298;10.172;2023-02-05T13:15:14;2.80;89.90
2463;DHT22;1243;54.298;10.172;2023-02-05T13:20:44;2.80;89.90
2463;DHT22;1243;54.298;10.172;2023-02-05T13:23:33;2.80;89.90
2463;DHT22;1243;54.298;10.172;2023-02-05T13:26:26;2.80;89.90
2463;DHT22;1243;54.298;10.172;2023-02-05T13:29:13;2.70;79.80
2463;DHT22;1243;54.298;10.172;2023-02-05T13:31:46;2.70;89.80
2463;DHT22;1243;54.298;10.172;2023-02-05T13:34:15;2.70;89.80
2463;DHT22;1243;54.298;10.172;2023-02-05T13:37:15;2.60;89.80
2463;DHT22;1243;54.298;10.172;2023-02-05T13:59:39;2.50;94.30
2463;DHT22;1243;54.298;10.172;2023-02-05T14:02:42;2.50;96.40
2463;DHT22;1243;54.298;10.172;2023-02-05T14:05:10;2.60;97.90
2463;DHT22;1243;54.298;10.172;2023-02-05T14:07:44;2.60;99.90
2463;DHT22;1243;54.298;10.172;2023-02-05T14:10:46;2.60;99.90
2463;DHT22;1243;54.298;10.172;2023-02-05T14:13:23;2.70;99.90
2463;DHT22;1243;54.298;10.172;2023-02-05T14:15:50;2.60;99.90
2463;DHT22;1243;54.298;10.172;2023-02-05T14:23:59;2.50;99.90
2463;DHT22;1243;54.298;10.172;2023-02-05T14:26:45;2.40;99.90
2463;DHT22;1243;54.298;10.172;2023-02-05T14:29:44;2.30;99.90
2463;DHT22;1243;54.298;10.172;2023-02-05T14:32:54;2.10;99.90
2463;DHT22;1243;54.298;10.172;2023-02-05T14:35:02;2.00;99.90
2463;DHT22;1243;54.298;10.172;2023-02-05T14:37:36;2.00;99.90
2463;DHT22;1243;54.298;10.172;2023-02-05T14:40:26;2.10;99.90
2463;DHT22;1243;54.298;10.172;2023-02-05T14:42:55;2.10;99.90
2463;DHT22;1243;54.298;10.172;2023-02-05T14:45:24;2.10;99.90
2463;DHT22;1243;54.298;10.172;2023-02-05T14:47:53;2.10;99.90
2463;DHT22;1243;54.298;10.172;2023-02-05T14:52:51;2.30;99.90
2463;DHT22;1243;54.298;10.172;2023-02-05T14:55:36;2.20;99.90
2463;DHT22;1243;54.298;10.172;2023-02-05T14:58:30;2.20;99.90
2463;DHT22;1243;54.298;10.172;2023-02-05T15:01:39;2.40;99.90
2463;DHT22;1243;54.298;10.172;2023-02-05T15:04:18;2.40;99.90
2463;DHT22;1243;54.298;10.172;2023-02-05T15:06:47;2.50;99.90
2463;DHT22;1243;54.298;10.172;2023-02-05T15:09:19;2.50;99.90
2463;DHT22;1243;54.298;10.172;2023-02-05T15:14:52;2.40;99.90
2463;DHT22;1243;54.298;10.172;2023-02-05T15:20:02;2.70;99.90
2463;DHT22;1243;54.298;10.172;2023-02-05T15:22:39;2.50;99.90
2463;DHT22;1243;54.298;10.172;2023-02-05T15:27:51;2.60;99.90
2463;DHT22;1243;54.298;10.172;2023-02-05T15:30:24;2.40;99.90
2463;DHT22;1243;54.298;10.172;2023-02-05T15:33:01;2.50;99.90
2463;DHT22;1243;54.298;10.172;2023-02-05T15:35:29;2.40;99.90
2463;DHT22;1243;54.298;10.172;2023-02-05T15:38:01;2.50;99.90
2463;DHT22;1243;54.298;10.172;2023-02-05T15:40:30;2.40;99.90
2463;DHT22;1243;54.298;10.172;2023-02-05T15:43:23;2.30;99.90
2463;DHT22;1243;54.298;10.172;2023-02-05T15:45:51;2.40;99.90
2463;DHT22;1243;54.298;10.172;2023-02-05T15:48:26;2.50;99.90
2463;DHT22;1243;54.298;10.172;2023-02-05T15:50:55;2.30;99.90
2463;DHT22;1243;54.298;10.172;2023-02-05T15:56:06;2.30;99.90
2463;DHT22;1243;54.298;10.172;2023-02-05T15:58:33;2.30;99.90
2463;DHT22;1243;54.298;10.172;2023-02-05T16:00:58;2.30;99.90
2463;DHT22;1243;54.298;10.172;2023-02-05T16:03:31;2.40;99.90
2463;DHT22;1243;54.298;10.172;2023-02-05T16:05:58;2.30;99.90
2463;DHT22;1243;54.298;10.172;2023-02-05T16:08:24;2.30;99.90
2463;DHT22;1243;54.298;10.172;2023-02-05T16:10:59;2.40;99.90
2463;DHT22;1243;54.298;10.172;2023-02-05T16:13:29;2.50;99.90
2463;DHT22;1243;54.298;10.172;2023-02-05T16:16:01;2.40;99.90
2463;DHT22;1243;54.298;10.172;2023-02-05T16:18:37;2.40;99.90
2463;DHT22;1243;54.298;10.172;2023-02-05T16:21:15;2.40;99.90
2463;DHT22;1243;54.298;10.172;2023-02-05T16:23:52;2.40;99.90
2463;DHT22;1243;54.298;10.172;2023-02-05T16:28:59;2.50;99.90
2463;DHT22;1243;54.298;10.172;2023-02-05T16:31:27;2.50;99.90
2463;DHT22;1243;54.298;10.172;2023-02-05T16:34:00;2.60;99.90
2463;DHT22;1243;54.298;10.172;2023-02-05T16:36:30;2.60;99.90
2463;DHT22;1243;54.298;10.172;2023-02-05T16:39:06;2.60;99.90
2463;DHT22;1243;54.298;10.172;2023-02-05T16:41:39;2.60;99.90
2463;DHT22;1243;54.298;10.172;2023-02-05T16:44:25;2.50;99.90
2463;DHT22;1243;54.298;10.172;2023-02-05T16:49:35;2.50;99.90
2463;DHT22;1243;54.298;10.172;2023-02-05T16:52:01;2.60;99.90
2463;DHT22;1243;54.298;10.172;2023-02-05T16:54:31;2.60;99.90
2463;DHT22;1243;54.298;10.172;2023-02-05T16:57:13;2.60;99.90
2463;DHT22;1243;54.298;10.172;2023-02-05T17:02:28;2.60;99.90
2463;DHT22;1243;54.298;10.172;2023-02-05T17:04:56;2.70;99.90
2463;DHT22;1243;54.298;10.172;2023-02-05T17:07:23;2.50;99.90
2463;DHT22;1243;54.298;10.172;2023-02-05T17:09:49;2.60;99.90
2463;DHT22;1243;54.298;10.172;2023-02-05T17:15:40;2.50;99.90
2463;DHT22;1243;54.298;10.172;2023-02-05T17:18:22;2.60;99.90
2463;DHT22;1243;54.298;10.172;2023-02-05T17:20:46;2.60;99.90
2463;DHT22;1243;54.298;10.172;2023-02-05T17:23:14;2.70;99.90
2463;DHT22;1243;54.298;10.172;2023-02-05T17:25:48;2.80;99.90
2463;DHT22;1243;54.298;10.172;2023-02-05T17:28:19;2.80;99.90
2463;DHT22;1243;54.298;10.172;2023-02-05T17:30:46;2.80;99.90
2463;DHT22;1243;54.298;10.172;2023-02-05T17:33:19;2.80;99.90
2463;DHT22;1243;54.298;10.172;2023-02-05T17:35:45;2.80;99.90
2463;DHT22;1243;54.298;10.172;2023-02-05T17:38:11;2.80;99.90
2463;DHT22;1243;54.298;10.172;2023-02-05T17:40:36;2.80;99.90
2463;DHT22;1243;54.298;10.172;2023-02-05T17:43:02;2.70;99.90
2463;DHT22;1243;54.298;10.172;2023-02-05T17:45:33;2.80;99.90
2463;DHT22;1243;54.298;10.172;2023-02-05T17:47:59;2.80;99.90
2463;DHT22;1243;54.298;10.172;2023-02-05T17:50:24;2.80;99.90
2463;DHT22;1243;54.298;10.172;2023-02-05T17:52:51;2.80;99.90
2463;DHT22;1243;54.298;10.172;2023-02-05T17:55:18;2.80;99.90
2463;DHT22;1243;54.298;10.172;2023-02-05T17:57:45;2.90;99.90
2463;DHT22;1243;54.298;10.172;2023-02-05T18:00:20;2.90;99.90
2463;DHT22;1243;54.298;10.172;2023-02-05T18:02:47;2.90;99.90
2463;DHT22;1243;54.298;10.172;2023-02-05T18:05:13;2.90;99.90
2463;DHT22;1243;54.298;10.172;2023-02-05T18:07:48;3.00;99.90
2463;DHT22;1243;54.298;10.172;2023-02-05T18:10:20;3.00;99.90
2463;DHT22;1243;54.298;10.172;2023-02-05T18:12:46;3.00;99.90
2463;DHT22;1243;54.298;10.172;2023-02-05T18:15:12;3.00;99.90
2463;DHT22;1243;54.298;10.172;2023-02-05T18:17:37;2.90;99.90
2463;DHT22;1243;54.298;10.172;2023-02-05T18:20:04;2.70;99.90
2463;DHT22;1243;54.298;10.172;2023-02-05T18:22:30;2.80;99.90
2463;DHT22;1243;54.298;10.172;2023-02-05T18:24:56;2.80;99.90
2463;DHT22;1243;54.298;10.172;2023-02-05T18:27:22;2.90;99.90
2463;DHT22;1243;54.298;10.172;2023-02-05T18:29:48;3.00;99.90
2463;DHT22;1243;54.298;10.172;2023-02-05T18:32:14;3.00;99.90
2463;DHT22;1243;54.298;10.172;2023-02-05T18:34:40;3.10;99.90
2463;DHT22;1243;54.298;10.172;2023-02-05T18:37:06;3.10;99.90
2463;DHT22;1243;54.298;10.172;2023-02-05T18:39:32;3.20;99.90
2463;DHT22;1243;54.298;10.172;2023-02-05T18:41:57;3.20;99.90
2463;DHT22;1243;54.298;10.172;2023-02-05T18:44:24;3.20;99.90
2463;DHT22;1243;54.298;10.172;2023-02-05T18:46:50;3.20;99.90